This is the latest recevied weather packets stored in our database for station/object N6WDO. If no packets are shown the sender has not sent any weather packets the latest 10 day(s).
| Time | Temp. | Humidity | Pressure | Rain* | Wind** | Luminosity | Snow |
|---|---|---|---|---|---|---|---|
| 1778177538 | 23.89° C | 55% | 1020.7 hPa | 0 mm | - | 665 W/m² | - |
| 1778177235 | 23.89° C | 58% | 1020.5 hPa | 0 mm | - | 658 W/m² | - |
| 1778175113 | 22.78° C | 58% | 1020.4 hPa | 0 mm | - | 596 W/m² | - |
| 1778174810 | 22.78° C | 58% | 1020.5 hPa | 0 mm | - | 587 W/m² | - |
| 1778174502 | 22.78° C | 59% | 1020.5 hPa | 0 mm | - | 574 W/m² | - |
| 1778173898 | 22.78° C | 58% | 1020.4 hPa | 0 mm | - | 553 W/m² | - |
| 1778173293 | 22.78° C | 56% | 1020.5 hPa | 0 mm | - | 531 W/m² | - |
| 1778171474 | 21.67° C | 60% | 1020.6 hPa | 0 mm | - | 455 W/m² | - |
| 1778170263 | 21.11° C | 62% | 1020.5 hPa | 0 mm | - | 401 W/m² | - |
| 1778169954 | 21.67° C | 62% | 1020.5 hPa | 0 mm | - | 384 W/m² | - |
| 1778169650 | 21.67° C | 61% | 1020.7 hPa | 0 mm | - | 371 W/m² | - |
| 1778167526 | 20.56° C | 65% | 1020.4 hPa | 0 mm | - | 298 W/m² | - |
| 1778166919 | 20° C | 68% | 1020.7 hPa | 0 mm | - | 111 W/m² | - |
| 1778166616 | 19.44° C | 68% | 1020.8 hPa | 0 mm | - | 222 W/m² | - |
| 1778166313 | 19.44° C | 69% | 1020.5 hPa | 0 mm | - | 210 W/m² | - |
| 1778164796 | 16.11° C | 80% | 1020.6 hPa | 0 mm | - | 111 W/m² | - |
| 1778164494 | 16.11° C | 81% | 1020.7 hPa | 0 mm | - | 98 W/m² | - |
| 1778164190 | 15.56° C | 84% | 1020.6 hPa | 0 mm | - | 88 W/m² | - |
| 1778163886 | 15.56° C | 85% | 1020.7 hPa | 0 mm | - | 79 W/m² | - |
| 1778163583 | 15° C | 87% | 1020.6 hPa | 0 mm | - | 71 W/m² | - |
| 1778162976 | 13.89° C | 95% | 1020.4 hPa | 0 mm | - | 53 W/m² | - |
| 1778162672 | 12.78° C | 97% | 1020.6 hPa | 0 mm | - | 52 W/m² | - |
| 1778162370 | 11.67° C | 97% | 1020.6 hPa | 0 mm | - | 44 W/m² | - |
| 1778161764 | 11.67° C | 98% | 1020.3 hPa | 0 mm | - | 25 W/m² | - |
| 1778161156 | 11.11° C | 98% | 1020.5 hPa | 0 mm | - | 22 W/m² | - |
* Rain latest hour (hover to see other rain measurements)
** Current wind speed in m/s (hover to see current wind gust speed)